createdAt,value
2022-10-02T00:00:01.732Z,1007.82
2022-10-02T00:00:36.038Z,1007.82
2022-10-02T00:00:58.633Z,1007.52
2022-10-02T00:01:21.138Z,1007.52
2022-10-02T00:01:55.977Z,1007.52
2022-10-02T00:02:28.032Z,1007.62
2022-10-02T00:03:00.792Z,1007.62
2022-10-02T00:03:32.567Z,1007.62
2022-10-02T00:03:55.263Z,1007.72
2022-10-02T00:04:17.852Z,1007.72
2022-10-02T00:04:52.189Z,1007.72
2022-10-02T00:05:23.984Z,1007.72
2022-10-02T00:05:56.164Z,1007.72
2022-10-02T00:06:28.157Z,1007.72
2022-10-02T00:07:00.699Z,1007.72
2022-10-02T00:07:32.379Z,1007.82
2022-10-02T00:07:54.947Z,1007.72
2022-10-02T00:08:21.986Z,1007.72
2022-10-02T00:08:52.006Z,1007.72
2022-10-02T00:09:24.072Z,1007.82
2022-10-02T00:09:55.991Z,1007.82
2022-10-02T00:10:27.945Z,1007.62
2022-10-02T00:10:59.947Z,1007.62
2022-10-02T00:11:32.063Z,1007.82
2022-10-02T00:11:54.707Z,1007.42
2022-10-02T00:12:17.248Z,1007.42
2022-10-02T00:12:52.214Z,1007.42
2022-10-02T00:13:24.374Z,1007.62
2022-10-02T00:13:56.273Z,1007.62
2022-10-02T00:14:27.925Z,1007.82
2022-10-02T00:15:01.475Z,1007.82
2022-10-02T00:15:32.494Z,1007.72
2022-10-02T00:15:55.279Z,1007.82
2022-10-02T00:16:17.962Z,1007.82
2022-10-02T00:16:52.100Z,1007.82
2022-10-02T00:17:24.044Z,1007.82
2022-10-02T00:17:56.107Z,1007.82
2022-10-02T00:18:28.291Z,1007.82
2022-10-02T00:19:00.201Z,1007.82
2022-10-02T00:19:32.637Z,1007.62
2022-10-02T00:19:55.285Z,1007.72
2022-10-02T00:20:17.622Z,1007.72
2022-10-02T00:20:52.184Z,1007.72
2022-10-02T00:21:23.947Z,1007.72
2022-10-02T00:21:55.978Z,1007.72
2022-10-02T00:22:27.932Z,1007.92
2022-10-02T00:23:00.240Z,1007.92
2022-10-02T00:23:32.300Z,1007.72
2022-10-02T00:23:54.982Z,1008.02
2022-10-02T00:24:17.897Z,1008.02
2022-10-02T00:24:51.889Z,1008.02
2022-10-02T00:25:24.011Z,1007.82
2022-10-02T00:25:56.145Z,1007.82
2022-10-02T00:26:28.074Z,1007.82
2022-10-02T00:27:00.048Z,1007.82
2022-10-02T00:27:32.680Z,1007.72
2022-10-02T00:27:55.420Z,1007.82
2022-10-02T00:28:17.783Z,1007.82
2022-10-02T00:28:53.027Z,1007.82
2022-10-02T00:29:24.133Z,1007.62
2022-10-02T00:29:56.791Z,1007.62
2022-10-02T00:30:28.241Z,1007.92
2022-10-02T00:31:00.146Z,1007.92
2022-10-02T00:31:32.102Z,1007.82
2022-10-02T00:31:54.956Z,1007.82
2022-10-02T00:32:17.909Z,1007.82
2022-10-02T00:32:52.217Z,1007.82
2022-10-02T00:33:24.602Z,1007.82
2022-10-02T00:33:55.982Z,1007.82
2022-10-02T00:34:28.359Z,1007.62
2022-10-02T00:35:00.363Z,1007.62
2022-10-02T00:35:32.099Z,1007.62
2022-10-02T00:35:55.034Z,1007.92
2022-10-02T00:36:17.413Z,1007.92
2022-10-02T00:36:51.995Z,1007.92
2022-10-02T00:37:24.245Z,1007.82
2022-10-02T00:37:56.384Z,1007.82
2022-10-02T00:38:28.119Z,1007.92
2022-10-02T00:38:59.861Z,1007.92
2022-10-02T00:39:32.398Z,1007.82
2022-10-02T00:39:54.930Z,1007.72
2022-10-02T00:40:17.430Z,1007.72
2022-10-02T00:40:51.973Z,1007.72
2022-10-02T00:41:24.106Z,1007.62
2022-10-02T00:41:56.426Z,1007.62
2022-10-02T00:42:28.074Z,1007.62
2022-10-02T00:43:00.027Z,1007.62
2022-10-02T00:43:31.877Z,1007.72
2022-10-02T00:43:54.741Z,1007.92
2022-10-02T00:44:17.089Z,1007.92
2022-10-02T00:44:52.065Z,1007.92
2022-10-02T00:45:23.870Z,1007.72
2022-10-02T00:45:56.326Z,1007.72
2022-10-02T00:46:27.849Z,1007.92
2022-10-02T00:47:00.095Z,1007.92
2022-10-02T00:47:31.773Z,1007.92
2022-10-02T00:47:54.630Z,1007.82
2022-10-02T00:48:17.179Z,1007.82
2022-10-02T00:48:51.966Z,1007.82
2022-10-02T00:49:24.097Z,1007.82
2022-10-02T00:49:55.901Z,1007.82
2022-10-02T00:50:28.045Z,1007.62
2022-10-02T00:51:00.016Z,1007.62
2022-10-02T00:51:32.612Z,1007.82
2022-10-02T00:51:55.297Z,1007.72
2022-10-02T00:52:17.725Z,1007.72
2022-10-02T00:52:52.311Z,1007.72
2022-10-02T00:53:24.692Z,1007.82
2022-10-02T00:53:57.272Z,1007.82
2022-10-02T00:54:28.010Z,1007.92
2022-10-02T00:54:59.906Z,1007.92
2022-10-02T00:55:31.897Z,1007.92
2022-10-02T00:55:54.539Z,1007.72
2022-10-02T00:56:18.342Z,1007.72
2022-10-02T00:56:51.910Z,1007.72
2022-10-02T00:57:24.032Z,1007.62
2022-10-02T00:57:55.962Z,1007.62
2022-10-02T00:58:27.998Z,1007.72
2022-10-02T00:59:00.501Z,1007.72
2022-10-02T00:59:32.545Z,1007.82
2022-10-02T00:59:55.432Z,1007.92
2022-10-02T01:00:17.738Z,1007.92
2022-10-02T01:00:52.781Z,1007.92
2022-10-02T01:01:23.877Z,1007.82
2022-10-02T01:01:55.993Z,1007.82
2022-10-02T01:02:27.800Z,1007.92
2022-10-02T01:03:01.227Z,1007.92
2022-10-02T01:03:32.290Z,1007.62
2022-10-02T01:03:54.878Z,1007.72
2022-10-02T01:04:18.307Z,1007.72
2022-10-02T01:04:51.962Z,1007.72
2022-10-02T01:05:23.857Z,1007.72
2022-10-02T01:05:56.110Z,1007.72
2022-10-02T01:06:28.651Z,1007.92
2022-10-02T01:07:00.018Z,1007.92
2022-10-02T01:07:32.808Z,1007.82
2022-10-02T01:07:55.531Z,1007.92
2022-10-02T01:08:17.920Z,1007.92
2022-10-02T01:08:51.858Z,1007.92
2022-10-02T01:09:23.897Z,1007.82
2022-10-02T01:09:55.909Z,1007.82
2022-10-02T01:10:27.909Z,1007.92
2022-10-02T01:10:59.943Z,1007.92
2022-10-02T01:11:31.898Z,1007.92
2022-10-02T01:11:54.626Z,1007.82
2022-10-02T01:12:17.232Z,1007.82
2022-10-02T01:12:51.930Z,1007.82
2022-10-02T01:13:24.867Z,1007.82
2022-10-02T01:13:55.916Z,1007.82
2022-10-02T01:14:28.630Z,1007.92
2022-10-02T01:15:00.781Z,1007.92
2022-10-02T01:15:32.360Z,1007.92
2022-10-02T01:15:55.117Z,1007.92
2022-10-02T01:16:17.636Z,1007.92
2022-10-02T01:16:51.912Z,1007.92
2022-10-02T01:17:23.848Z,1007.82
2022-10-02T01:17:56.101Z,1007.82
2022-10-02T01:18:28.082Z,1007.82
2022-10-02T01:18:59.971Z,1007.82
2022-10-02T01:19:31.942Z,1007.82
2022-10-02T01:19:54.711Z,1007.92
2022-10-02T01:20:17.098Z,1007.92
2022-10-02T01:20:51.989Z,1007.92
2022-10-02T01:21:24.699Z,1007.82
2022-10-02T01:21:56.091Z,1007.82
2022-10-02T01:22:28.323Z,1007.82
2022-10-02T01:22:59.928Z,1007.82
2022-10-02T01:23:32.180Z,1007.82
2022-10-02T01:23:54.792Z,1007.92
2022-10-02T01:24:17.290Z,1007.92
2022-10-02T01:24:53.052Z,1007.92
2022-10-02T01:25:24.419Z,1007.92
2022-10-02T01:25:56.397Z,1007.92
2022-10-02T01:26:28.249Z,1008.02
2022-10-02T01:27:00.433Z,1008.02
2022-10-02T01:27:33.688Z,1008.02
2022-10-02T01:27:54.799Z,1007.72
2022-10-02T01:28:17.358Z,1007.72
2022-10-02T01:28:52.152Z,1007.72
2022-10-02T01:29:27.493Z,1008.13
2022-10-02T01:29:49.966Z,1008.13
2022-10-02T01:30:28.208Z,1007.92
2022-10-02T01:30:59.765Z,1007.92
2022-10-02T01:31:31.767Z,1007.72
2022-10-02T01:31:55.640Z,1007.82
2022-10-02T01:32:17.466Z,1007.82
2022-10-02T01:32:51.859Z,1007.82
2022-10-02T01:33:23.730Z,1007.92
2022-10-02T01:33:55.857Z,1007.92
2022-10-02T01:34:27.765Z,1008.02
2022-10-02T01:35:00.023Z,1008.02
2022-10-02T01:35:31.907Z,1008.02
2022-10-02T01:35:54.664Z,1007.92
2022-10-02T01:36:16.931Z,1007.92
2022-10-02T01:36:52.010Z,1007.92
2022-10-02T01:37:23.767Z,1007.82
2022-10-02T01:37:55.740Z,1007.82
2022-10-02T01:38:28.107Z,1007.92
2022-10-02T01:38:59.960Z,1007.92
2022-10-02T01:39:31.888Z,1007.92
2022-10-02T01:39:55.091Z,1008.02
2022-10-02T01:40:17.450Z,1008.02
2022-10-02T01:40:51.914Z,1008.02
2022-10-02T01:41:23.760Z,1007.82
2022-10-02T01:41:55.768Z,1007.82
2022-10-02T01:42:27.797Z,1008.02
2022-10-02T01:42:59.917Z,1008.02
2022-10-02T01:43:31.847Z,1007.82
2022-10-02T01:43:54.643Z,1008.13
2022-10-02T01:44:16.765Z,1008.13
2022-10-02T01:44:51.937Z,1008.13
2022-10-02T01:45:23.905Z,1008.02
2022-10-02T01:45:55.753Z,1008.02
2022-10-02T01:46:27.807Z,1008.13
2022-10-02T01:46:59.870Z,1008.13
2022-10-02T01:47:31.849Z,1008.02
2022-10-02T01:47:54.762Z,1008.02
2022-10-02T01:48:17.268Z,1008.02
2022-10-02T01:48:51.838Z,1008.02
2022-10-02T01:49:23.817Z,1008.02
2022-10-02T01:49:55.877Z,1008.02
2022-10-02T01:50:27.780Z,1008.13
2022-10-02T01:51:00.278Z,1008.13
2022-10-02T01:51:31.739Z,1008.23
2022-10-02T01:51:54.557Z,1008.02
2022-10-02T01:52:16.941Z,1008.02
2022-10-02T01:52:51.868Z,1008.02
2022-10-02T01:53:24.373Z,1007.82
2022-10-02T01:53:55.801Z,1007.82
2022-10-02T01:54:27.965Z,1007.92
2022-10-02T01:54:59.797Z,1007.92
2022-10-02T01:55:31.908Z,1008.23
2022-10-02T01:55:54.662Z,1008.23
2022-10-02T01:56:17.085Z,1008.23
2022-10-02T01:56:51.744Z,1008.23
2022-10-02T01:57:23.845Z,1008.23
2022-10-02T01:57:55.817Z,1008.23
2022-10-02T01:58:27.840Z,1008.02
2022-10-02T01:58:59.773Z,1008.02
2022-10-02T01:59:32.047Z,1008.33
2022-10-02T01:59:54.804Z,1008.02
2022-10-02T02:00:17.122Z,1008.02
2022-10-02T02:00:51.991Z,1008.02
2022-10-02T02:01:23.951Z,1008.13
2022-10-02T02:01:56.097Z,1008.13
2022-10-02T02:02:27.933Z,1008.13
2022-10-02T02:03:31.856Z,1007.92
2022-10-02T02:03:54.558Z,1008.13
2022-10-02T02:04:17.019Z,1008.13
2022-10-02T02:04:51.900Z,1008.13
2022-10-02T02:05:23.727Z,1008.13
2022-10-02T02:05:55.888Z,1008.13
2022-10-02T02:06:27.842Z,1008.02
2022-10-02T02:06:59.916Z,1008.02
2022-10-02T02:07:31.758Z,1008.02
2022-10-02T02:07:54.530Z,1007.92
2022-10-02T02:08:16.860Z,1007.92
2022-10-02T02:08:52.406Z,1007.92
2022-10-02T02:09:23.738Z,1008.02
2022-10-02T02:09:55.872Z,1008.02
2022-10-02T02:10:27.956Z,1008.13
2022-10-02T02:10:59.918Z,1008.13
2022-10-02T02:11:31.801Z,1008.13
2022-10-02T02:11:54.654Z,1007.92
2022-10-02T02:12:16.975Z,1007.92
2022-10-02T02:12:51.808Z,1007.92
2022-10-02T02:13:26.288Z,1008.13
2022-10-02T02:13:55.859Z,1008.13
2022-10-02T02:14:27.855Z,1007.92
2022-10-02T02:15:02.234Z,1007.92
2022-10-02T02:15:31.722Z,1007.92
2022-10-02T02:15:54.457Z,1008.02
2022-10-02T02:16:18.400Z,1008.02
2022-10-02T02:16:51.788Z,1008.02
2022-10-02T02:17:24.086Z,1008.13
2022-10-02T02:17:55.696Z,1008.13
2022-10-02T02:18:27.946Z,1008.02
2022-10-02T02:19:00.252Z,1008.02
2022-10-02T02:19:32.177Z,1007.92
2022-10-02T02:19:55.729Z,1008.23
2022-10-02T02:20:18.244Z,1008.23
2022-10-02T02:20:51.942Z,1008.23
2022-10-02T02:21:24.028Z,1008.02
2022-10-02T02:21:55.849Z,1008.02
2022-10-02T02:22:27.834Z,1007.92
2022-10-02T02:22:59.976Z,1007.92
2022-10-02T02:23:32.001Z,1007.82
2022-10-02T02:23:54.614Z,1007.92
2022-10-02T02:24:16.915Z,1007.92
2022-10-02T02:24:51.952Z,1007.92
2022-10-02T02:25:24.061Z,1007.72
2022-10-02T02:25:55.833Z,1007.72
2022-10-02T02:26:27.919Z,1007.92
2022-10-02T02:26:59.844Z,1007.92
2022-10-02T02:27:31.835Z,1008.13
2022-10-02T02:27:55.173Z,1007.92
2022-10-02T02:28:17.539Z,1007.92
2022-10-02T02:28:51.703Z,1007.92
2022-10-02T02:29:23.912Z,1007.92
2022-10-02T02:29:55.715Z,1007.92
2022-10-02T02:30:27.847Z,1007.92
2022-10-02T02:30:59.854Z,1007.92
2022-10-02T02:31:32.001Z,1007.72
2022-10-02T02:31:54.907Z,1008.02
2022-10-02T02:32:17.199Z,1008.02
2022-10-02T02:32:51.883Z,1008.02
2022-10-02T02:33:23.824Z,1007.72
2022-10-02T02:33:55.887Z,1007.72
2022-10-02T02:34:27.953Z,1007.82
2022-10-02T02:34:59.709Z,1007.82
2022-10-02T02:35:34.192Z,1007.92
2022-10-02T02:35:54.601Z,1007.82
2022-10-02T02:36:16.967Z,1007.82
2022-10-02T02:36:51.889Z,1007.82
2022-10-02T02:37:23.685Z,1008.02
2022-10-02T02:37:56.107Z,1008.02
2022-10-02T02:38:27.848Z,1007.72
2022-10-02T02:38:59.996Z,1007.72
2022-10-02T02:39:31.762Z,1007.82
2022-10-02T02:39:54.753Z,1007.92
2022-10-02T02:40:16.759Z,1007.92
2022-10-02T02:40:51.812Z,1007.92
2022-10-02T02:41:23.960Z,1007.82
2022-10-02T02:41:55.941Z,1007.82
2022-10-02T02:42:27.829Z,1007.92
2022-10-02T02:42:59.991Z,1007.92
2022-10-02T02:43:31.786Z,1007.82
2022-10-02T02:43:55.265Z,1007.72
2022-10-02T02:44:17.597Z,1007.72
2022-10-02T02:44:51.880Z,1007.72
2022-10-02T02:45:23.951Z,1008.02
2022-10-02T02:45:55.711Z,1008.02
2022-10-02T02:46:27.859Z,1007.72
2022-10-02T02:46:59.694Z,1007.72
2022-10-02T02:47:31.832Z,1007.82
2022-10-02T02:47:54.887Z,1008.02
2022-10-02T02:48:17.235Z,1008.02
2022-10-02T02:48:51.890Z,1008.02
2022-10-02T02:49:23.799Z,1007.92
2022-10-02T02:49:55.662Z,1007.92
2022-10-02T02:50:27.803Z,1008.02
2022-10-02T02:50:59.911Z,1008.02
2022-10-02T02:51:31.661Z,1007.92
2022-10-02T02:51:54.617Z,1007.92
2022-10-02T02:52:17.022Z,1007.92
2022-10-02T02:52:51.811Z,1007.92
2022-10-02T02:53:23.726Z,1007.72
2022-10-02T02:53:56.030Z,1007.72
2022-10-02T02:54:27.679Z,1007.92
2022-10-02T02:54:59.837Z,1007.92
2022-10-02T02:55:31.800Z,1007.62
2022-10-02T02:55:54.547Z,1007.82
2022-10-02T02:56:16.829Z,1007.82
2022-10-02T02:56:51.881Z,1007.82
2022-10-02T02:57:23.879Z,1007.92
2022-10-02T02:57:55.813Z,1007.92
2022-10-02T02:58:27.794Z,1007.72
2022-10-02T02:58:59.833Z,1007.72
2022-10-02T02:59:31.788Z,1007.92
2022-10-02T02:59:55.612Z,1007.82
2022-10-02T03:00:17.951Z,1007.82
2022-10-02T03:00:51.711Z,1007.82
2022-10-02T03:01:23.899Z,1008.02
2022-10-02T03:01:55.768Z,1008.02
2022-10-02T03:02:27.882Z,1008.02
2022-10-02T03:03:26.217Z,1008.02
2022-10-02T03:04:00.384Z,1007.92
2022-10-02T03:04:36.038Z,1007.92
2022-10-02T03:04:58.569Z,1007.82
2022-10-02T03:05:21.071Z,1007.82
2022-10-02T03:05:55.860Z,1007.82
2022-10-02T03:06:27.887Z,1007.72
2022-10-02T03:07:00.320Z,1007.72
2022-10-02T03:07:32.301Z,1008.02
2022-10-02T03:07:54.961Z,1008.23
2022-10-02T03:08:17.264Z,1008.23
2022-10-02T03:08:51.909Z,1008.23
2022-10-02T03:09:25.301Z,1007.82
2022-10-02T03:09:56.004Z,1007.82
2022-10-02T03:10:28.250Z,1008.02
2022-10-02T03:10:59.810Z,1008.02
2022-10-02T03:11:31.851Z,1007.82
2022-10-02T03:11:54.553Z,1007.82
2022-10-02T03:12:16.907Z,1007.82
2022-10-02T03:12:52.189Z,1007.82
2022-10-02T03:13:23.886Z,1008.13
2022-10-02T03:13:55.818Z,1008.13
2022-10-02T03:14:27.835Z,1007.92
2022-10-02T03:15:01.329Z,1007.92
2022-10-02T03:15:31.912Z,1008.13
2022-10-02T03:15:54.649Z,1008.13
2022-10-02T03:16:18.930Z,1008.13
2022-10-02T03:16:52.057Z,1008.13
2022-10-02T03:17:24.163Z,1007.82
2022-10-02T03:17:55.680Z,1007.82
2022-10-02T03:18:27.994Z,1008.02
2022-10-02T03:19:00.101Z,1008.02
2022-10-02T03:19:31.981Z,1008.02
2022-10-02T03:19:54.752Z,1008.13
2022-10-02T03:20:17.028Z,1008.13
2022-10-02T03:20:53.122Z,1008.13
2022-10-02T03:21:23.772Z,1008.02
2022-10-02T03:21:55.851Z,1008.02
2022-10-02T03:22:27.729Z,1007.82
2022-10-02T03:23:00.174Z,1007.82
2022-10-02T03:23:32.268Z,1007.92
2022-10-02T03:23:54.902Z,1007.72
2022-10-02T03:24:17.248Z,1007.72
2022-10-02T03:24:51.974Z,1007.72
2022-10-02T03:25:24.541Z,1007.82
2022-10-02T03:25:55.982Z,1007.82
2022-10-02T03:26:28.350Z,1007.72
2022-10-02T03:27:00.403Z,1007.72
2022-10-02T03:27:34.998Z,1008.02
2022-10-02T03:27:54.774Z,1007.92
2022-10-02T03:28:31.812Z,1007.92
2022-10-02T03:28:55.562Z,1007.92
2022-10-02T03:29:23.758Z,1008.02
2022-10-02T03:29:55.843Z,1008.02
2022-10-02T03:30:27.794Z,1007.62
2022-10-02T03:31:00.172Z,1007.62
2022-10-02T03:31:31.860Z,1007.82
2022-10-02T03:31:54.595Z,1008.13
2022-10-02T03:32:17.232Z,1008.13
2022-10-02T03:32:51.766Z,1008.13
2022-10-02T03:33:24.012Z,1008.13
2022-10-02T03:33:56.017Z,1008.13
2022-10-02T03:34:28.357Z,1007.92
2022-10-02T03:34:59.648Z,1007.92
2022-10-02T03:35:31.909Z,1007.92
2022-10-02T03:35:54.574Z,1007.82
2022-10-02T03:36:17.516Z,1007.82
2022-10-02T03:36:52.450Z,1007.82
2022-10-02T03:37:23.937Z,1007.92
2022-10-02T03:37:56.083Z,1007.92
2022-10-02T03:38:28.031Z,1007.92
2022-10-02T03:39:23.743Z,1007.92
2022-10-02T03:39:32.684Z,1008.02
2022-10-02T03:39:55.383Z,1008.13
2022-10-02T03:40:18.141Z,1008.13
2022-10-02T03:40:51.755Z,1008.13
2022-10-02T03:41:24.302Z,1008.23
2022-10-02T03:41:55.958Z,1008.23
2022-10-02T03:42:28.098Z,1008.13
2022-10-02T03:42:59.745Z,1008.13
2022-10-02T03:43:31.707Z,1008.23
2022-10-02T03:43:54.413Z,1008.23
2022-10-02T03:44:16.826Z,1008.23
2022-10-02T03:44:51.866Z,1008.23
2022-10-02T03:45:46.131Z,1008.13
2022-10-02T03:45:55.913Z,1008.13
2022-10-02T03:46:27.817Z,1008.13
2022-10-02T03:46:59.765Z,1008.13
2022-10-02T03:47:31.689Z,1008.23
2022-10-02T03:47:54.333Z,1008.02
2022-10-02T03:48:17.163Z,1008.02
2022-10-02T03:48:52.585Z,1008.02
2022-10-02T03:49:24.486Z,1008.13
2022-10-02T03:49:55.712Z,1008.13
2022-10-02T03:50:29.310Z,1008.02
2022-10-02T03:50:59.648Z,1008.02
2022-10-02T03:51:32.046Z,1008.13
2022-10-02T03:51:54.748Z,1008.23
2022-10-02T03:52:17.162Z,1008.23
2022-10-02T03:52:51.973Z,1008.23
2022-10-02T03:53:24.394Z,1008.02
2022-10-02T03:53:56.345Z,1008.02
2022-10-02T03:54:27.961Z,1008.13
2022-10-02T03:55:01.098Z,1008.13
2022-10-02T03:55:31.682Z,1008.13
2022-10-02T03:55:54.540Z,1008.13
2022-10-02T03:56:18.171Z,1008.13
2022-10-02T03:56:51.716Z,1008.13
2022-10-02T03:57:23.840Z,1008.23
2022-10-02T03:57:55.950Z,1008.23
2022-10-02T03:58:28.402Z,1008.23
2022-10-02T03:58:59.804Z,1008.23
2022-10-02T03:59:32.200Z,1008.23
2022-10-02T03:59:54.798Z,1007.92
2022-10-02T04:00:17.468Z,1007.92
2022-10-02T04:00:52.383Z,1007.92
2022-10-02T04:01:23.984Z,1008.13
2022-10-02T04:01:56.018Z,1008.13
2022-10-02T04:02:28.048Z,1008.13
2022-10-02T04:03:01.987Z,1008.13
2022-10-02T04:03:32.249Z,1008.13
2022-10-02T04:03:54.992Z,1008.13
2022-10-02T04:04:17.688Z,1008.13
2022-10-02T04:04:53.124Z,1008.13
2022-10-02T04:05:23.923Z,1008.33
2022-10-02T04:05:56.842Z,1008.33
2022-10-02T04:06:28.229Z,1008.13
2022-10-02T04:06:59.896Z,1008.13
2022-10-02T04:07:32.481Z,1008.02
2022-10-02T04:07:55.206Z,1008.13
2022-10-02T04:08:17.564Z,1008.13
2022-10-02T04:08:51.704Z,1008.13
2022-10-02T04:09:23.848Z,1008.13
2022-10-02T04:09:56.424Z,1008.13
2022-10-02T04:10:27.909Z,1007.92
2022-10-02T04:10:59.881Z,1007.92
2022-10-02T04:11:31.979Z,1008.13
2022-10-02T04:11:54.697Z,1008.13
2022-10-02T04:12:17.440Z,1008.13
2022-10-02T04:12:51.757Z,1008.13
2022-10-02T04:13:25.107Z,1007.82
2022-10-02T04:13:55.773Z,1007.82
2022-10-02T04:14:27.969Z,1008.23
2022-10-02T04:15:00.493Z,1008.23
2022-10-02T04:15:31.901Z,1008.13
2022-10-02T04:15:54.675Z,1008.02
2022-10-02T04:16:16.918Z,1008.02
2022-10-02T04:16:52.758Z,1008.02
2022-10-02T04:17:24.182Z,1008.23
2022-10-02T04:17:58.766Z,1008.23
2022-10-02T04:18:28.174Z,1008.13
2022-10-02T04:19:00.566Z,1008.13
2022-10-02T04:19:31.939Z,1008.02
2022-10-02T04:19:54.884Z,1008.02
2022-10-02T04:20:18.047Z,1008.02
2022-10-02T04:20:51.957Z,1008.02
2022-10-02T04:21:24.011Z,1008.13
2022-10-02T04:21:55.870Z,1008.13
2022-10-02T04:22:27.795Z,1008.02
2022-10-02T04:22:59.735Z,1008.02
2022-10-02T04:23:31.845Z,1008.23
2022-10-02T04:23:54.548Z,1007.92
2022-10-02T04:24:17.048Z,1007.92
2022-10-02T04:24:52.419Z,1007.92
2022-10-02T04:25:23.816Z,1008.02
2022-10-02T04:25:56.250Z,1008.02
2022-10-02T04:26:27.676Z,1007.82
2022-10-02T04:27:00.089Z,1007.82
2022-10-02T04:27:31.720Z,1007.92
2022-10-02T04:27:54.530Z,1008.13
2022-10-02T04:28:17.410Z,1008.13
2022-10-02T04:28:52.636Z,1008.13
2022-10-02T04:29:24.404Z,1008.23
2022-10-02T04:29:56.206Z,1008.23
2022-10-02T04:30:28.440Z,1008.02
2022-10-02T04:30:59.850Z,1008.02
2022-10-02T04:31:32.088Z,1008.13
2022-10-02T04:31:55.055Z,1008.13
2022-10-02T04:32:17.184Z,1008.13
2022-10-02T04:32:52.567Z,1008.13
2022-10-02T04:33:23.700Z,1008.23
2022-10-02T04:33:55.796Z,1008.23
2022-10-02T04:34:27.902Z,1008.33
2022-10-02T04:34:59.816Z,1008.33
2022-10-02T04:35:31.745Z,1008.23
2022-10-02T04:35:54.503Z,1008.13
2022-10-02T04:36:17.948Z,1008.13
2022-10-02T04:36:51.582Z,1008.13
2022-10-02T04:37:24.008Z,1008.23
2022-10-02T04:37:55.744Z,1008.23
2022-10-02T04:38:28.420Z,1008.23
2022-10-02T04:38:59.548Z,1008.23
2022-10-02T04:39:32.615Z,1008.13
2022-10-02T04:39:55.329Z,1008.02
2022-10-02T04:40:17.537Z,1008.02
2022-10-02T04:40:52.262Z,1008.02
2022-10-02T04:41:23.749Z,1008.33
2022-10-02T04:41:57.113Z,1008.33
2022-10-02T04:42:28.253Z,1008.13
2022-10-02T04:43:00.001Z,1008.13
2022-10-02T04:43:31.808Z,1008.33
2022-10-02T04:43:54.615Z,1008.13
2022-10-02T04:44:17.024Z,1008.13
2022-10-02T04:44:51.690Z,1008.13
2022-10-02T04:45:24.053Z,1008.33
2022-10-02T04:45:55.950Z,1008.33
2022-10-02T04:46:27.653Z,1008.23
2022-10-02T04:46:59.594Z,1008.23
2022-10-02T04:47:32.462Z,1008.13
2022-10-02T04:47:55.187Z,1008.13
2022-10-02T04:48:17.897Z,1008.13
2022-10-02T04:48:52.108Z,1008.13
2022-10-02T04:49:23.731Z,1008.02
2022-10-02T04:49:55.709Z,1008.02
2022-10-02T04:50:27.723Z,1008.02
2022-10-02T04:50:59.791Z,1008.02
2022-10-02T04:51:31.792Z,1008.13
2022-10-02T04:51:54.597Z,1008.02
2022-10-02T04:52:16.995Z,1008.02
2022-10-02T04:52:51.886Z,1008.02
2022-10-02T04:53:23.929Z,1007.92
2022-10-02T04:53:55.725Z,1007.92
2022-10-02T04:54:28.504Z,1008.13
2022-10-02T04:54:59.555Z,1008.13
2022-10-02T04:55:32.190Z,1007.92
2022-10-02T04:55:55.127Z,1008.02
2022-10-02T04:56:17.848Z,1008.02
2022-10-02T04:56:51.886Z,1008.02
2022-10-02T04:57:23.899Z,1008.02
2022-10-02T04:57:55.838Z,1008.02
2022-10-02T04:58:27.714Z,1008.02
2022-10-02T04:58:59.564Z,1008.02
2022-10-02T04:59:32.087Z,1007.92
2022-10-02T04:59:54.885Z,1008.13
2022-10-02T05:00:17.899Z,1008.13
2022-10-02T05:00:51.965Z,1008.13
2022-10-02T05:01:23.981Z,1008.23
2022-10-02T05:01:56.412Z,1008.23
2022-10-02T05:02:28.205Z,1008.13
2022-10-02T05:02:59.761Z,1008.13
2022-10-02T05:03:32.248Z,1008.13
2022-10-02T05:03:54.902Z,1008.23
2022-10-02T05:04:17.766Z,1008.23
2022-10-02T05:04:52.678Z,1008.23
2022-10-02T05:05:25.262Z,1008.02
2022-10-02T05:05:55.710Z,1008.02
2022-10-02T05:06:27.880Z,1008.13
2022-10-02T05:07:00.401Z,1008.13
2022-10-02T05:07:31.678Z,1008.13
2022-10-02T05:07:54.428Z,1008.33
2022-10-02T05:08:16.889Z,1008.33
2022-10-02T05:08:51.519Z,1008.33
2022-10-02T05:09:28.454Z,1008.23
2022-10-02T05:09:55.779Z,1008.23
2022-10-02T05:10:28.130Z,1008.13
2022-10-02T05:10:59.954Z,1008.13
2022-10-02T05:11:32.107Z,1008.13
2022-10-02T05:11:54.695Z,1008.33
2022-10-02T05:12:17.097Z,1008.33
2022-10-02T05:12:57.458Z,1008.33
2022-10-02T05:13:24.038Z,1008.13
2022-10-02T05:13:56.655Z,1008.13
2022-10-02T05:14:28.358Z,1008.33
2022-10-02T05:15:00.549Z,1008.33
2022-10-02T05:15:31.855Z,1008.13
2022-10-02T05:15:54.596Z,1008.53
2022-10-02T05:16:17.578Z,1008.53
2022-10-02T05:16:52.090Z,1008.53
2022-10-02T05:17:23.872Z,1008.33
2022-10-02T05:17:56.025Z,1008.33
2022-10-02T05:18:27.766Z,1008.13
2022-10-02T05:18:59.896Z,1008.13
2022-10-02T05:19:31.965Z,1008.23
2022-10-02T05:19:54.653Z,1008.23
2022-10-02T05:20:17.195Z,1008.23
2022-10-02T05:20:52.507Z,1008.23
2022-10-02T05:21:23.754Z,1008.23
2022-10-02T05:21:55.816Z,1008.23
2022-10-02T05:22:27.640Z,1008.33
2022-10-02T05:23:00.529Z,1008.33
2022-10-02T05:23:32.047Z,1008.53
2022-10-02T05:23:54.685Z,1008.23
2022-10-02T05:24:17.153Z,1008.23
2022-10-02T05:24:51.653Z,1008.23
2022-10-02T05:25:23.683Z,1008.43
2022-10-02T05:25:55.755Z,1008.43
2022-10-02T05:26:28.640Z,1008.43
2022-10-02T05:26:59.753Z,1008.43
2022-10-02T05:27:32.165Z,1008.43
2022-10-02T05:27:57.363Z,1008.63
2022-10-02T05:28:17.487Z,1008.63
2022-10-02T05:28:52.139Z,1008.63
2022-10-02T05:29:24.123Z,1008.43
2022-10-02T05:29:56.387Z,1008.43
2022-10-02T05:30:27.895Z,1008.43
2022-10-02T05:31:00.150Z,1008.43
2022-10-02T05:31:31.970Z,1008.33
2022-10-02T05:31:54.886Z,1008.23
2022-10-02T05:32:18.002Z,1008.23
2022-10-02T05:32:51.838Z,1008.23
2022-10-02T05:33:24.131Z,1008.13
2022-10-02T05:33:55.809Z,1008.13
2022-10-02T05:34:28.235Z,1008.43
2022-10-02T05:34:59.661Z,1008.43
2022-10-02T05:35:34.066Z,1008.53
2022-10-02T05:35:56.848Z,1008.43
2022-10-02T05:36:19.477Z,1008.43
2022-10-02T05:36:52.096Z,1008.43
2022-10-02T05:37:23.861Z,1008.33
2022-10-02T05:37:55.777Z,1008.33
2022-10-02T05:38:27.878Z,1008.53
2022-10-02T05:38:59.928Z,1008.53
2022-10-02T05:39:33.394Z,1008.63
2022-10-02T05:39:56.216Z,1008.43
2022-10-02T05:40:18.380Z,1008.43
2022-10-02T05:40:52.772Z,1008.43
2022-10-02T05:41:23.948Z,1008.74
2022-10-02T05:41:55.678Z,1008.74
2022-10-02T05:42:27.824Z,1008.74
2022-10-02T05:42:59.934Z,1008.74
2022-10-02T05:43:31.834Z,1008.63
2022-10-02T05:43:54.583Z,1008.74
2022-10-02T05:44:16.956Z,1008.74
2022-10-02T05:44:51.944Z,1008.74
2022-10-02T05:45:23.862Z,1008.74
2022-10-02T05:45:56.028Z,1008.74
2022-10-02T05:46:27.740Z,1008.53
2022-10-02T05:46:59.955Z,1008.53
2022-10-02T05:47:31.684Z,1008.53
2022-10-02T05:47:54.500Z,1008.63
2022-10-02T05:48:16.891Z,1008.63
2022-10-02T05:48:51.871Z,1008.63
2022-10-02T05:49:25.158Z,1008.53
2022-10-02T05:49:56.469Z,1008.53
2022-10-02T05:50:28.131Z,1008.63
2022-10-02T05:50:59.849Z,1008.63
2022-10-02T05:51:31.703Z,1008.84
2022-10-02T05:51:54.572Z,1008.84
2022-10-02T05:52:16.976Z,1008.84
2022-10-02T05:52:51.941Z,1008.84
2022-10-02T05:53:24.106Z,1008.74
2022-10-02T05:53:56.007Z,1008.74
2022-10-02T05:54:28.134Z,1008.74
2022-10-02T05:54:59.860Z,1008.74
2022-10-02T05:55:32.103Z,1008.63
2022-10-02T05:55:54.614Z,1008.63
2022-10-02T05:56:18.917Z,1008.63
2022-10-02T05:56:51.811Z,1008.63
2022-10-02T05:57:23.978Z,1008.63
2022-10-02T05:57:55.785Z,1008.63
2022-10-02T05:58:27.793Z,1008.53
2022-10-02T05:58:59.689Z,1008.53
2022-10-02T05:59:32.297Z,1008.63
2022-10-02T05:59:55.060Z,1008.63
2022-10-02T06:00:17.400Z,1008.63
2022-10-02T06:00:52.729Z,1008.63
2022-10-02T06:01:23.905Z,1008.63
2022-10-02T06:01:56.806Z,1008.63
2022-10-02T06:02:27.909Z,1008.53
2022-10-02T06:03:00.207Z,1008.53
2022-10-02T06:03:31.782Z,1008.43